sensor_id;sensor_type;location;lat;lon;timestamp;P1;durP1;ratioP1;P2;durP2;ratioP2
980;SDS011;479;53.514;9.994;2022-08-01T00:01:34;20.50;;;18.60;;
980;SDS011;479;53.514;9.994;2022-08-01T00:04:01;43.73;;;39.10;;
980;SDS011;479;53.514;9.994;2022-08-01T00:06:29;19.87;;;17.90;;
980;SDS011;479;53.514;9.994;2022-08-01T00:08:56;18.10;;;16.50;;
980;SDS011;479;53.514;9.994;2022-08-01T00:11:23;17.20;;;15.80;;
980;SDS011;479;53.514;9.994;2022-08-01T00:13:50;17.07;;;15.57;;
980;SDS011;479;53.514;9.994;2022-08-01T00:16:17;18.00;;;16.40;;
980;SDS011;479;53.514;9.994;2022-08-01T00:18:44;14.80;;;13.67;;
980;SDS011;479;53.514;9.994;2022-08-01T00:21:11;13.93;;;12.73;;
980;SDS011;479;53.514;9.994;2022-08-01T00:23:39;15.47;;;14.07;;
980;SDS011;479;53.514;9.994;2022-08-01T00:26:06;15.83;;;14.37;;
980;SDS011;479;53.514;9.994;2022-08-01T00:28:33;15.10;;;13.80;;
980;SDS011;479;53.514;9.994;2022-08-01T00:31:00;16.37;;;14.77;;
980;SDS011;479;53.514;9.994;2022-08-01T00:33:27;20.87;;;18.73;;
980;SDS011;479;53.514;9.994;2022-08-01T00:35:53;16.27;;;14.67;;
980;SDS011;479;53.514;9.994;2022-08-01T00:38:21;17.87;;;16.07;;
980;SDS011;479;53.514;9.994;2022-08-01T00:40:49;15.20;;;13.70;;
980;SDS011;479;53.514;9.994;2022-08-01T00:43:16;15.20;;;13.80;;
980;SDS011;479;53.514;9.994;2022-08-01T00:45:43;15.60;;;14.10;;
980;SDS011;479;53.514;9.994;2022-08-01T00:48:10;13.90;;;12.70;;
980;SDS011;479;53.514;9.994;2022-08-01T00:50:37;14.77;;;13.40;;
980;SDS011;479;53.514;9.994;2022-08-01T00:53:04;14.60;;;13.00;;
980;SDS011;479;53.514;9.994;2022-08-01T00:55:31;15.20;;;13.73;;
980;SDS011;479;53.514;9.994;2022-08-01T00:58:00;14.77;;;13.37;;
980;SDS011;479;53.514;9.994;2022-08-01T01:00:27;18.07;;;16.20;;
980;SDS011;479;53.514;9.994;2022-08-01T01:02:53;15.80;;;14.40;;
980;SDS011;479;53.514;9.994;2022-08-01T01:05:20;15.03;;;13.60;;
980;SDS011;479;53.514;9.994;2022-08-01T01:07:48;14.90;;;13.57;;
980;SDS011;479;53.514;9.994;2022-08-01T01:10:21;11.83;;;10.53;;
980;SDS011;479;53.514;9.994;2022-08-01T01:12:54;13.17;;;11.83;;
980;SDS011;479;53.514;9.994;2022-08-01T01:15:28;12.13;;;11.03;;
980;SDS011;479;53.514;9.994;2022-08-01T01:18:02;11.93;;;10.87;;
980;SDS011;479;53.514;9.994;2022-08-01T01:20:34;12.20;;;11.13;;
980;SDS011;479;53.514;9.994;2022-08-01T01:23:12;12.40;;;11.30;;
980;SDS011;479;53.514;9.994;2022-08-01T01:25:57;12.50;;;11.13;;
980;SDS011;479;53.514;9.994;2022-08-01T01:28:40;13.90;;;12.03;;
980;SDS011;479;53.514;9.994;2022-08-01T01:31:23;15.23;;;13.77;;
980;SDS011;479;53.514;9.994;2022-08-01T01:33:52;12.67;;;11.47;;
980;SDS011;479;53.514;9.994;2022-08-01T01:36:20;11.37;;;10.30;;
980;SDS011;479;53.514;9.994;2022-08-01T01:38:47;11.80;;;10.80;;
980;SDS011;479;53.514;9.994;2022-08-01T01:41:17;12.53;;;11.40;;
980;SDS011;479;53.514;9.994;2022-08-01T01:43:45;12.37;;;11.27;;
980;SDS011;479;53.514;9.994;2022-08-01T01:46:16;14.03;;;10.70;;
980;SDS011;479;53.514;9.994;2022-08-01T01:48:47;12.90;;;11.67;;
980;SDS011;479;53.514;9.994;2022-08-01T01:51:16;13.73;;;11.87;;
980;SDS011;479;53.514;9.994;2022-08-01T01:53:44;12.73;;;11.20;;
980;SDS011;479;53.514;9.994;2022-08-01T01:56:13;12.63;;;11.40;;
980;SDS011;479;53.514;9.994;2022-08-01T01:58:43;11.83;;;10.73;;
980;SDS011;479;53.514;9.994;2022-08-01T02:01:11;13.20;;;11.80;;
980;SDS011;479;53.514;9.994;2022-08-01T02:03:40;12.03;;;10.67;;
980;SDS011;479;53.514;9.994;2022-08-01T02:06:08;10.73;;;9.73;;
980;SDS011;479;53.514;9.994;2022-08-01T02:08:39;9.23;;;8.43;;
980;SDS011;479;53.514;9.994;2022-08-01T02:11:07;10.53;;;9.27;;
980;SDS011;479;53.514;9.994;2022-08-01T02:13:48;9.53;;;8.83;;
980;SDS011;479;53.514;9.994;2022-08-01T02:16:20;9.03;;;8.23;;
980;SDS011;479;53.514;9.994;2022-08-01T02:18:51;9.73;;;8.90;;
980;SDS011;479;53.514;9.994;2022-08-01T02:21:20;9.30;;;8.40;;
980;SDS011;479;53.514;9.994;2022-08-01T02:23:53;9.60;;;8.80;;
980;SDS011;479;53.514;9.994;2022-08-01T02:26:21;10.53;;;9.33;;
980;SDS011;479;53.514;9.994;2022-08-01T02:28:50;10.07;;;9.20;;
980;SDS011;479;53.514;9.994;2022-08-01T02:31:22;10.00;;;9.00;;
980;SDS011;479;53.514;9.994;2022-08-01T02:33:52;9.63;;;8.73;;
980;SDS011;479;53.514;9.994;2022-08-01T02:36:23;9.57;;;8.57;;
980;SDS011;479;53.514;9.994;2022-08-01T02:38:53;8.67;;;7.97;;
980;SDS011;479;53.514;9.994;2022-08-01T02:41:22;9.13;;;8.23;;
980;SDS011;479;53.514;9.994;2022-08-01T02:43:53;8.67;;;7.97;;
980;SDS011;479;53.514;9.994;2022-08-01T02:46:26;10.10;;;8.07;;
980;SDS011;479;53.514;9.994;2022-08-01T02:48:59;15.13;;;8.03;;
980;SDS011;479;53.514;9.994;2022-08-01T02:51:28;8.50;;;7.90;;
980;SDS011;479;53.514;9.994;2022-08-01T02:53:57;8.60;;;7.80;;
980;SDS011;479;53.514;9.994;2022-08-01T02:56:26;9.20;;;8.43;;
980;SDS011;479;53.514;9.994;2022-08-01T02:59:01;10.00;;;8.97;;
980;SDS011;479;53.514;9.994;2022-08-01T03:01:30;8.80;;;8.00;;
980;SDS011;479;53.514;9.994;2022-08-01T03:04:00;7.43;;;6.73;;
980;SDS011;479;53.514;9.994;2022-08-01T03:06:27;9.13;;;8.43;;
980;SDS011;479;53.514;9.994;2022-08-01T03:08:55;13.43;;;8.03;;
980;SDS011;479;53.514;9.994;2022-08-01T03:11:23;8.47;;;7.77;;
980;SDS011;479;53.514;9.994;2022-08-01T03:13:52;9.07;;;7.97;;
980;SDS011;479;53.514;9.994;2022-08-01T03:16:21;8.60;;;7.90;;
980;SDS011;479;53.514;9.994;2022-08-01T03:18:51;9.10;;;8.30;;
980;SDS011;479;53.514;9.994;2022-08-01T03:21:23;9.50;;;8.60;;
980;SDS011;479;53.514;9.994;2022-08-01T03:23:52;9.23;;;8.53;;
980;SDS011;479;53.514;9.994;2022-08-01T03:26:23;8.37;;;7.87;;
980;SDS011;479;53.514;9.994;2022-08-01T03:28:55;9.13;;;8.33;;
980;SDS011;479;53.514;9.994;2022-08-01T03:31:23;8.87;;;7.97;;
980;SDS011;479;53.514;9.994;2022-08-01T03:33:51;9.47;;;8.60;;
980;SDS011;479;53.514;9.994;2022-08-01T03:36:19;8.93;;;8.03;;
980;SDS011;479;53.514;9.994;2022-08-01T03:38:51;7.70;;;7.00;;
980;SDS011;479;53.514;9.994;2022-08-01T03:41:21;7.37;;;6.77;;
980;SDS011;479;53.514;9.994;2022-08-01T03:43:53;8.30;;;7.60;;
980;SDS011;479;53.514;9.994;2022-08-01T03:46:26;7.30;;;6.57;;
980;SDS011;479;53.514;9.994;2022-08-01T03:48:58;7.30;;;6.70;;
980;SDS011;479;53.514;9.994;2022-08-01T03:51:31;5.97;;;5.47;;
980;SDS011;479;53.514;9.994;2022-08-01T03:53:59;6.70;;;6.00;;
980;SDS011;479;53.514;9.994;2022-08-01T03:56:27;5.37;;;4.97;;
980;SDS011;479;53.514;9.994;2022-08-01T03:58:57;5.60;;;5.10;;
980;SDS011;479;53.514;9.994;2022-08-01T04:01:25;5.30;;;4.90;;
980;SDS011;479;53.514;9.994;2022-08-01T04:03:54;6.00;;;5.50;;
980;SDS011;479;53.514;9.994;2022-08-01T04:06:21;7.30;;;6.70;;
980;SDS011;479;53.514;9.994;2022-08-01T04:08:49;5.23;;;4.80;;
980;SDS011;479;53.514;9.994;2022-08-01T04:11:21;5.03;;;4.67;;
980;SDS011;479;53.514;9.994;2022-08-01T04:13:50;4.80;;;4.50;;
980;SDS011;479;53.514;9.994;2022-08-01T04:16:17;6.53;;;5.60;;
980;SDS011;479;53.514;9.994;2022-08-01T04:18:44;7.13;;;5.53;;
980;SDS011;479;53.514;9.994;2022-08-01T04:21:11;5.10;;;4.50;;
980;SDS011;479;53.514;9.994;2022-08-01T04:23:39;5.43;;;4.93;;
980;SDS011;479;53.514;9.994;2022-08-01T04:26:11;5.13;;;4.53;;
980;SDS011;479;53.514;9.994;2022-08-01T04:28:39;5.47;;;4.87;;
980;SDS011;479;53.514;9.994;2022-08-01T04:31:08;5.90;;;5.17;;
980;SDS011;479;53.514;9.994;2022-08-01T04:33:36;6.13;;;5.10;;
980;SDS011;479;53.514;9.994;2022-08-01T04:36:06;5.43;;;5.07;;
980;SDS011;479;53.514;9.994;2022-08-01T04:38:36;6.50;;;6.00;;
980;SDS011;479;53.514;9.994;2022-08-01T04:41:04;5.60;;;5.10;;
980;SDS011;479;53.514;9.994;2022-08-01T04:43:34;5.63;;;5.03;;
980;SDS011;479;53.514;9.994;2022-08-01T04:46:01;5.33;;;4.83;;
980;SDS011;479;53.514;9.994;2022-08-01T04:48:29;5.07;;;4.57;;
980;SDS011;479;53.514;9.994;2022-08-01T04:50:58;5.00;;;4.60;;
980;SDS011;479;53.514;9.994;2022-08-01T04:53:25;4.67;;;4.27;;
980;SDS011;479;53.514;9.994;2022-08-01T04:55:53;5.63;;;5.13;;
980;SDS011;479;53.514;9.994;2022-08-01T04:58:20;3.70;;;3.40;;
980;SDS011;479;53.514;9.994;2022-08-01T05:00:49;3.93;;;3.33;;
980;SDS011;479;53.514;9.994;2022-08-01T05:03:16;3.67;;;3.37;;
980;SDS011;479;53.514;9.994;2022-08-01T05:05:43;4.37;;;4.07;;
980;SDS011;479;53.514;9.994;2022-08-01T05:08:10;6.13;;;4.07;;
980;SDS011;479;53.514;9.994;2022-08-01T05:10:36;3.40;;;3.10;;
980;SDS011;479;53.514;9.994;2022-08-01T05:13:03;3.17;;;2.97;;
980;SDS011;479;53.514;9.994;2022-08-01T05:15:31;3.70;;;3.40;;
980;SDS011;479;53.514;9.994;2022-08-01T05:17:59;3.40;;;3.10;;
980;SDS011;479;53.514;9.994;2022-08-01T05:20:26;4.00;;;3.20;;
980;SDS011;479;53.514;9.994;2022-08-01T05:22:53;4.03;;;3.63;;
980;SDS011;479;53.514;9.994;2022-08-01T05:25:20;3.20;;;2.97;;
980;SDS011;479;53.514;9.994;2022-08-01T05:27:48;3.57;;;3.37;;
980;SDS011;479;53.514;9.994;2022-08-01T05:30:16;3.97;;;3.67;;
980;SDS011;479;53.514;9.994;2022-08-01T05:32:42;6.70;;;6.20;;
980;SDS011;479;53.514;9.994;2022-08-01T05:35:11;5.10;;;4.60;;
980;SDS011;479;53.514;9.994;2022-08-01T05:37:38;4.33;;;4.03;;
980;SDS011;479;53.514;9.994;2022-08-01T05:40:05;6.37;;;5.97;;
980;SDS011;479;53.514;9.994;2022-08-01T05:42:32;5.60;;;5.30;;
980;SDS011;479;53.514;9.994;2022-08-01T05:44:59;6.00;;;5.60;;
980;SDS011;479;53.514;9.994;2022-08-01T05:47:26;11.03;;;7.70;;
980;SDS011;479;53.514;9.994;2022-08-01T05:49:53;10.53;;;6.70;;
980;SDS011;479;53.514;9.994;2022-08-01T05:52:21;7.30;;;6.80;;
980;SDS011;479;53.514;9.994;2022-08-01T05:54:48;7.90;;;7.20;;
980;SDS011;479;53.514;9.994;2022-08-01T05:57:15;8.30;;;7.70;;
980;SDS011;479;53.514;9.994;2022-08-01T05:59:41;9.20;;;8.30;;
980;SDS011;479;53.514;9.994;2022-08-01T06:02:08;8.30;;;7.60;;
980;SDS011;479;53.514;9.994;2022-08-01T06:04:35;9.17;;;8.23;;
980;SDS011;479;53.514;9.994;2022-08-01T06:07:02;9.63;;;8.93;;
980;SDS011;479;53.514;9.994;2022-08-01T06:09:30;7.43;;;6.90;;
980;SDS011;479;53.514;9.994;2022-08-01T06:11:57;7.13;;;6.70;;
980;SDS011;479;53.514;9.994;2022-08-01T06:14:24;6.07;;;5.67;;
980;SDS011;479;53.514;9.994;2022-08-01T06:16:51;5.40;;;4.87;;
980;SDS011;479;53.514;9.994;2022-08-01T06:19:18;5.00;;;4.60;;
980;SDS011;479;53.514;9.994;2022-08-01T06:21:45;5.07;;;4.67;;
980;SDS011;479;53.514;9.994;2022-08-01T06:24:12;6.03;;;5.30;;
980;SDS011;479;53.514;9.994;2022-08-01T06:26:40;6.70;;;5.47;;
980;SDS011;479;53.514;9.994;2022-08-01T06:29:07;6.60;;;5.90;;
980;SDS011;479;53.514;9.994;2022-08-01T06:31:34;6.83;;;6.13;;
980;SDS011;479;53.514;9.994;2022-08-01T06:34:01;6.97;;;6.47;;
980;SDS011;479;53.514;9.994;2022-08-01T06:36:28;10.90;;;6.80;;
980;SDS011;479;53.514;9.994;2022-08-01T06:38:55;7.50;;;6.90;;
980;SDS011;479;53.514;9.994;2022-08-01T06:41:22;7.57;;;6.97;;
980;SDS011;479;53.514;9.994;2022-08-01T06:43:50;7.53;;;6.83;;
980;SDS011;479;53.514;9.994;2022-08-01T06:46:17;5.70;;;5.20;;
980;SDS011;479;53.514;9.994;2022-08-01T06:48:43;5.77;;;5.17;;
980;SDS011;479;53.514;9.994;2022-08-01T06:51:10;5.93;;;5.30;;
980;SDS011;479;53.514;9.994;2022-08-01T06:53:40;6.50;;;5.90;;
980;SDS011;479;53.514;9.994;2022-08-01T06:56:07;6.60;;;6.00;;
980;SDS011;479;53.514;9.994;2022-08-01T06:58:34;7.90;;;6.13;;
980;SDS011;479;53.514;9.994;2022-08-01T07:01:03;12.37;;;6.93;;
980;SDS011;479;53.514;9.994;2022-08-01T07:03:33;6.23;;;5.60;;
980;SDS011;479;53.514;9.994;2022-08-01T07:06:00;8.73;;;5.57;;
980;SDS011;479;53.514;9.994;2022-08-01T07:08:27;5.47;;;4.90;;
980;SDS011;479;53.514;9.994;2022-08-01T07:10:54;7.30;;;5.87;;
980;SDS011;479;53.514;9.994;2022-08-01T07:13:24;4.47;;;3.93;;
980;SDS011;479;53.514;9.994;2022-08-01T07:15:51;6.53;;;3.90;;
980;SDS011;479;53.514;9.994;2022-08-01T07:18:20;5.60;;;4.87;;
980;SDS011;479;53.514;9.994;2022-08-01T07:20:47;7.47;;;4.97;;
980;SDS011;479;53.514;9.994;2022-08-01T07:23:15;6.13;;;4.40;;
980;SDS011;479;53.514;9.994;2022-08-01T07:25:42;6.33;;;5.13;;
980;SDS011;479;53.514;9.994;2022-08-01T07:28:09;10.27;;;5.77;;
980;SDS011;479;53.514;9.994;2022-08-01T07:30:35;7.27;;;6.63;;
980;SDS011;479;53.514;9.994;2022-08-01T07:33:02;8.73;;;7.70;;
980;SDS011;479;53.514;9.994;2022-08-01T07:35:31;7.80;;;7.10;;
980;SDS011;479;53.514;9.994;2022-08-01T07:37:58;11.90;;;7.90;;
980;SDS011;479;53.514;9.994;2022-08-01T07:40:24;11.57;;;8.10;;
980;SDS011;479;53.514;9.994;2022-08-01T07:42:52;8.57;;;7.77;;
980;SDS011;479;53.514;9.994;2022-08-01T07:45:18;12.33;;;8.30;;
980;SDS011;479;53.514;9.994;2022-08-01T07:47:46;10.67;;;8.30;;
980;SDS011;479;53.514;9.994;2022-08-01T07:50:14;14.57;;;9.40;;
980;SDS011;479;53.514;9.994;2022-08-01T07:52:43;24.87;;;10.37;;
980;SDS011;479;53.514;9.994;2022-08-01T07:55:10;14.13;;;8.63;;
980;SDS011;479;53.514;9.994;2022-08-01T07:57:38;16.43;;;9.60;;
980;SDS011;479;53.514;9.994;2022-08-01T08:00:05;10.17;;;9.23;;
980;SDS011;479;53.514;9.994;2022-08-01T08:02:34;13.20;;;7.30;;
980;SDS011;479;53.514;9.994;2022-08-01T08:05:01;15.93;;;9.30;;
980;SDS011;479;53.514;9.994;2022-08-01T08:07:29;13.33;;;7.80;;
980;SDS011;479;53.514;9.994;2022-08-01T08:09:57;11.80;;;8.97;;
980;SDS011;479;53.514;9.994;2022-08-01T08:12:24;13.43;;;7.80;;
980;SDS011;479;53.514;9.994;2022-08-01T08:14:51;10.57;;;6.63;;
980;SDS011;479;53.514;9.994;2022-08-01T08:17:18;11.30;;;6.30;;
980;SDS011;479;53.514;9.994;2022-08-01T08:19:45;9.20;;;5.87;;
980;SDS011;479;53.514;9.994;2022-08-01T08:22:12;13.83;;;6.23;;
980;SDS011;479;53.514;9.994;2022-08-01T08:24:39;9.50;;;4.57;;
980;SDS011;479;53.514;9.994;2022-08-01T08:27:07;8.20;;;4.43;;
980;SDS011;479;53.514;9.994;2022-08-01T08:29:34;7.53;;;4.33;;
980;SDS011;479;53.514;9.994;2022-08-01T08:32:01;6.23;;;3.70;;
980;SDS011;479;53.514;9.994;2022-08-01T08:34:28;10.03;;;3.70;;
980;SDS011;479;53.514;9.994;2022-08-01T08:36:56;12.63;;;4.93;;
980;SDS011;479;53.514;9.994;2022-08-01T08:39:23;7.97;;;3.80;;
980;SDS011;479;53.514;9.994;2022-08-01T08:41:50;6.40;;;3.30;;
980;SDS011;479;53.514;9.994;2022-08-01T08:44:18;32.67;;;24.90;;
980;SDS011;479;53.514;9.994;2022-08-01T08:46:47;9.17;;;4.87;;
980;SDS011;479;53.514;9.994;2022-08-01T08:49:18;6.13;;;3.60;;
980;SDS011;479;53.514;9.994;2022-08-01T08:51:49;11.50;;;5.37;;
980;SDS011;479;53.514;9.994;2022-08-01T08:54:18;8.17;;;2.80;;
980;SDS011;479;53.514;9.994;2022-08-01T08:56:47;6.10;;;2.70;;
980;SDS011;479;53.514;9.994;2022-08-01T08:59:16;7.50;;;2.87;;
980;SDS011;479;53.514;9.994;2022-08-01T09:01:45;5.37;;;2.30;;
980;SDS011;479;53.514;9.994;2022-08-01T09:04:12;8.47;;;3.23;;
980;SDS011;479;53.514;9.994;2022-08-01T09:06:39;5.40;;;3.03;;
980;SDS011;479;53.514;9.994;2022-08-01T09:09:07;3.70;;;2.40;;
980;SDS011;479;53.514;9.994;2022-08-01T09:11:35;5.93;;;3.20;;
980;SDS011;479;53.514;9.994;2022-08-01T09:14:07;3.50;;;2.40;;
980;SDS011;479;53.514;9.994;2022-08-01T09:16:36;6.53;;;2.67;;
980;SDS011;479;53.514;9.994;2022-08-01T09:19:07;5.40;;;2.50;;
980;SDS011;479;53.514;9.994;2022-08-01T09:21:36;6.10;;;3.10;;
980;SDS011;479;53.514;9.994;2022-08-01T09:24:03;7.43;;;2.97;;
980;SDS011;479;53.514;9.994;2022-08-01T09:26:39;9.27;;;5.77;;
980;SDS011;479;53.514;9.994;2022-08-01T09:29:07;8.37;;;4.77;;
980;SDS011;479;53.514;9.994;2022-08-01T09:31:43;4.60;;;4.00;;
980;SDS011;479;53.514;9.994;2022-08-01T09:34:13;6.67;;;5.83;;
980;SDS011;479;53.514;9.994;2022-08-01T09:36:44;7.70;;;6.37;;
980;SDS011;479;53.514;9.994;2022-08-01T09:39:20;9.87;;;3.83;;
980;SDS011;479;53.514;9.994;2022-08-01T09:41:49;6.03;;;4.20;;
980;SDS011;479;53.514;9.994;2022-08-01T09:44:16;4.33;;;3.77;;
980;SDS011;479;53.514;9.994;2022-08-01T09:46:52;6.10;;;5.10;;
980;SDS011;479;53.514;9.994;2022-08-01T09:49:28;6.27;;;4.20;;
980;SDS011;479;53.514;9.994;2022-08-01T09:51:57;6.37;;;4.10;;
980;SDS011;479;53.514;9.994;2022-08-01T09:54:28;10.07;;;6.63;;
980;SDS011;479;53.514;9.994;2022-08-01T09:57:06;39.07;;;34.90;;
980;SDS011;479;53.514;9.994;2022-08-01T09:59:35;16.50;;;14.83;;
980;SDS011;479;53.514;9.994;2022-08-01T10:02:06;8.03;;;5.40;;
980;SDS011;479;53.514;9.994;2022-08-01T10:04:34;8.50;;;5.00;;
980;SDS011;479;53.514;9.994;2022-08-01T10:07:05;7.50;;;6.77;;
980;SDS011;479;53.514;9.994;2022-08-01T10:09:33;8.07;;;4.67;;
980;SDS011;479;53.514;9.994;2022-08-01T10:12:02;5.37;;;4.73;;
980;SDS011;479;53.514;9.994;2022-08-01T10:14:30;7.90;;;5.97;;
980;SDS011;479;53.514;9.994;2022-08-01T10:16:58;8.40;;;6.23;;
980;SDS011;479;53.514;9.994;2022-08-01T10:19:26;10.93;;;5.87;;
980;SDS011;479;53.514;9.994;2022-08-01T10:21:57;8.40;;;4.93;;
980;SDS011;479;53.514;9.994;2022-08-01T10:24:25;7.17;;;5.93;;
980;SDS011;479;53.514;9.994;2022-08-01T10:26:55;13.03;;;8.10;;
980;SDS011;479;53.514;9.994;2022-08-01T10:29:28;7.30;;;4.80;;
980;SDS011;479;53.514;9.994;2022-08-01T10:32:02;5.90;;;4.20;;
980;SDS011;479;53.514;9.994;2022-08-01T10:34:34;6.33;;;3.93;;
980;SDS011;479;53.514;9.994;2022-08-01T10:37:04;6.00;;;4.30;;
980;SDS011;479;53.514;9.994;2022-08-01T10:39:31;8.07;;;4.03;;
980;SDS011;479;53.514;9.994;2022-08-01T10:41:59;5.93;;;3.43;;
980;SDS011;479;53.514;9.994;2022-08-01T10:44:27;11.90;;;3.87;;
980;SDS011;479;53.514;9.994;2022-08-01T10:46:57;9.30;;;3.47;;
980;SDS011;479;53.514;9.994;2022-08-01T10:49:30;7.33;;;3.43;;
980;SDS011;479;53.514;9.994;2022-08-01T10:52:01;7.70;;;2.80;;
980;SDS011;479;53.514;9.994;2022-08-01T10:54:38;5.07;;;3.37;;
980;SDS011;479;53.514;9.994;2022-08-01T10:57:06;5.47;;;4.07;;
980;SDS011;479;53.514;9.994;2022-08-01T10:59:35;9.10;;;4.53;;
980;SDS011;479;53.514;9.994;2022-08-01T11:02:17;8.50;;;5.80;;
980;SDS011;479;53.514;9.994;2022-08-01T11:04:54;11.97;;;9.67;;
980;SDS011;479;53.514;9.994;2022-08-01T11:07:34;10.07;;;5.30;;
980;SDS011;479;53.514;9.994;2022-08-01T11:10:09;9.20;;;7.70;;
980;SDS011;479;53.514;9.994;2022-08-01T11:12:44;8.90;;;5.93;;
980;SDS011;479;53.514;9.994;2022-08-01T11:15:21;3.80;;;3.20;;
980;SDS011;479;53.514;9.994;2022-08-01T11:17:54;8.03;;;3.40;;
980;SDS011;479;53.514;9.994;2022-08-01T11:20:21;7.10;;;3.40;;
980;SDS011;479;53.514;9.994;2022-08-01T11:23:16;6.60;;;2.50;;
980;SDS011;479;53.514;9.994;2022-08-01T11:28:39;4.47;;;2.10;;
980;SDS011;479;53.514;9.994;2022-08-01T11:33:55;5.10;;;2.47;;
980;SDS011;479;53.514;9.994;2022-08-01T11:36:22;6.60;;;2.90;;
980;SDS011;479;53.514;9.994;2022-08-01T11:41:46;30.20;;;24.00;;
980;SDS011;479;53.514;9.994;2022-08-01T11:44:14;7.07;;;3.37;;
980;SDS011;479;53.514;9.994;2022-08-01T11:46:47;5.50;;;3.87;;
980;SDS011;479;53.514;9.994;2022-08-01T11:49:22;9.20;;;5.83;;
980;SDS011;479;53.514;9.994;2022-08-01T11:51:56;8.27;;;4.53;;
980;SDS011;479;53.514;9.994;2022-08-01T11:54:26;10.07;;;8.07;;
980;SDS011;479;53.514;9.994;2022-08-01T11:56:57;10.47;;;8.40;;
980;SDS011;479;53.514;9.994;2022-08-01T11:59:26;11.50;;;6.90;;
980;SDS011;479;53.514;9.994;2022-08-01T12:01:53;4.87;;;3.00;;
980;SDS011;479;53.514;9.994;2022-08-01T12:04:20;5.10;;;2.30;;
980;SDS011;479;53.514;9.994;2022-08-01T12:06:47;6.77;;;2.77;;
980;SDS011;479;53.514;9.994;2022-08-01T12:09:15;5.13;;;2.80;;
980;SDS011;479;53.514;9.994;2022-08-01T12:11:44;5.43;;;3.00;;
980;SDS011;479;53.514;9.994;2022-08-01T12:14:15;4.40;;;2.17;;
980;SDS011;479;53.514;9.994;2022-08-01T12:16:48;9.23;;;3.63;;
980;SDS011;479;53.514;9.994;2022-08-01T12:19:19;5.90;;;3.00;;
980;SDS011;479;53.514;9.994;2022-08-01T12:22:09;5.87;;;3.33;;
980;SDS011;479;53.514;9.994;2022-08-01T12:24:38;4.43;;;2.93;;
980;SDS011;479;53.514;9.994;2022-08-01T12:27:10;8.63;;;2.70;;
980;SDS011;479;53.514;9.994;2022-08-01T12:29:49;4.10;;;3.57;;
980;SDS011;479;53.514;9.994;2022-08-01T12:32:23;8.50;;;5.77;;
980;SDS011;479;53.514;9.994;2022-08-01T12:34:52;22.90;;;17.60;;
980;SDS011;479;53.514;9.994;2022-08-01T12:37:20;7.40;;;3.50;;
980;SDS011;479;53.514;9.994;2022-08-01T12:39:47;7.00;;;3.37;;
980;SDS011;479;53.514;9.994;2022-08-01T12:42:16;5.80;;;2.70;;
980;SDS011;479;53.514;9.994;2022-08-01T12:44:44;14.13;;;11.77;;
980;SDS011;479;53.514;9.994;2022-08-01T12:47:14;5.60;;;2.43;;
980;SDS011;479;53.514;9.994;2022-08-01T12:49:42;8.33;;;3.83;;
980;SDS011;479;53.514;9.994;2022-08-01T12:52:10;10.70;;;8.73;;
980;SDS011;479;53.514;9.994;2022-08-01T12:57:28;5.40;;;3.57;;
980;SDS011;479;53.514;9.994;2022-08-01T13:00:04;4.87;;;2.40;;
980;SDS011;479;53.514;9.994;2022-08-01T13:02:32;7.20;;;2.77;;
980;SDS011;479;53.514;9.994;2022-08-01T13:05:00;6.40;;;2.90;;
980;SDS011;479;53.514;9.994;2022-08-01T13:07:34;7.13;;;2.90;;
980;SDS011;479;53.514;9.994;2022-08-01T13:10:02;6.90;;;2.77;;
980;SDS011;479;53.514;9.994;2022-08-01T13:12:31;7.23;;;2.90;;
980;SDS011;479;53.514;9.994;2022-08-01T13:14:58;3.27;;;2.43;;
980;SDS011;479;53.514;9.994;2022-08-01T13:17:31;2.73;;;2.23;;
980;SDS011;479;53.514;9.994;2022-08-01T13:20:01;5.80;;;4.00;;
980;SDS011;479;53.514;9.994;2022-08-01T13:22:31;7.00;;;5.07;;
980;SDS011;479;53.514;9.994;2022-08-01T13:25:08;6.30;;;4.43;;
980;SDS011;479;53.514;9.994;2022-08-01T13:27:38;7.03;;;4.47;;
980;SDS011;479;53.514;9.994;2022-08-01T13:30:14;6.70;;;5.70;;
980;SDS011;479;53.514;9.994;2022-08-01T13:32:42;11.00;;;8.00;;
980;SDS011;479;53.514;9.994;2022-08-01T13:35:10;3.10;;;2.23;;
980;SDS011;479;53.514;9.994;2022-08-01T13:37:39;5.40;;;2.37;;
980;SDS011;479;53.514;9.994;2022-08-01T13:40:08;6.20;;;3.63;;
980;SDS011;479;53.514;9.994;2022-08-01T13:42:38;7.57;;;6.03;;
980;SDS011;479;53.514;9.994;2022-08-01T13:45:05;6.17;;;4.93;;
980;SDS011;479;53.514;9.994;2022-08-01T13:47:36;4.93;;;2.10;;
980;SDS011;479;53.514;9.994;2022-08-01T13:50:03;17.37;;;14.27;;
980;SDS011;479;53.514;9.994;2022-08-01T13:52:31;8.50;;;4.23;;
980;SDS011;479;53.514;9.994;2022-08-01T13:54:58;6.13;;;4.70;;
980;SDS011;479;53.514;9.994;2022-08-01T13:57:25;6.63;;;4.00;;
980;SDS011;479;53.514;9.994;2022-08-01T13:59:53;4.43;;;2.40;;
980;SDS011;479;53.514;9.994;2022-08-01T14:02:20;9.77;;;6.37;;
980;SDS011;479;53.514;9.994;2022-08-01T14:04:47;8.80;;;4.70;;
980;SDS011;479;53.514;9.994;2022-08-01T14:07:14;5.50;;;3.10;;
980;SDS011;479;53.514;9.994;2022-08-01T14:09:41;6.70;;;6.03;;
980;SDS011;479;53.514;9.994;2022-08-01T14:12:08;20.00;;;12.73;;
980;SDS011;479;53.514;9.994;2022-08-01T14:14:35;11.13;;;7.80;;
980;SDS011;479;53.514;9.994;2022-08-01T14:17:04;6.47;;;3.50;;
980;SDS011;479;53.514;9.994;2022-08-01T14:19:31;6.60;;;3.77;;
980;SDS011;479;53.514;9.994;2022-08-01T14:21:58;5.87;;;3.63;;
980;SDS011;479;53.514;9.994;2022-08-01T14:24:25;3.90;;;2.67;;
980;SDS011;479;53.514;9.994;2022-08-01T14:26:52;4.73;;;2.83;;
980;SDS011;479;53.514;9.994;2022-08-01T14:29:19;5.20;;;3.00;;
980;SDS011;479;53.514;9.994;2022-08-01T14:31:46;3.87;;;2.63;;
980;SDS011;479;53.514;9.994;2022-08-01T14:34:14;7.93;;;3.33;;
980;SDS011;479;53.514;9.994;2022-08-01T14:36:41;4.23;;;2.57;;
980;SDS011;479;53.514;9.994;2022-08-01T14:39:08;4.40;;;2.33;;
980;SDS011;479;53.514;9.994;2022-08-01T14:41:35;4.57;;;2.30;;
980;SDS011;479;53.514;9.994;2022-08-01T14:44:02;14.73;;;11.50;;
980;SDS011;479;53.514;9.994;2022-08-01T14:46:30;14.57;;;10.33;;
980;SDS011;479;53.514;9.994;2022-08-01T14:48:56;21.00;;;14.87;;
980;SDS011;479;53.514;9.994;2022-08-01T14:51:25;4.20;;;3.10;;
980;SDS011;479;53.514;9.994;2022-08-01T14:53:51;16.43;;;12.63;;
980;SDS011;479;53.514;9.994;2022-08-01T14:56:19;9.30;;;2.73;;
980;SDS011;479;53.514;9.994;2022-08-01T14:58:46;8.23;;;3.10;;
980;SDS011;479;53.514;9.994;2022-08-01T15:01:13;5.00;;;3.00;;
980;SDS011;479;53.514;9.994;2022-08-01T15:03:40;6.40;;;3.17;;
980;SDS011;479;53.514;9.994;2022-08-01T15:06:07;9.00;;;4.73;;
980;SDS011;479;53.514;9.994;2022-08-01T15:08:37;4.73;;;2.83;;
980;SDS011;479;53.514;9.994;2022-08-01T15:11:04;3.93;;;3.00;;
980;SDS011;479;53.514;9.994;2022-08-01T15:13:33;4.67;;;2.40;;
980;SDS011;479;53.514;9.994;2022-08-01T15:16:00;4.50;;;2.60;;
980;SDS011;479;53.514;9.994;2022-08-01T15:18:27;9.23;;;4.23;;
980;SDS011;479;53.514;9.994;2022-08-01T15:20:54;10.63;;;4.00;;
980;SDS011;479;53.514;9.994;2022-08-01T15:23:22;5.47;;;3.10;;
980;SDS011;479;53.514;9.994;2022-08-01T15:25:50;5.67;;;2.63;;
980;SDS011;479;53.514;9.994;2022-08-01T15:28:17;10.93;;;4.53;;
980;SDS011;479;53.514;9.994;2022-08-01T15:30:45;4.67;;;3.20;;
980;SDS011;479;53.514;9.994;2022-08-01T15:33:12;4.87;;;3.57;;
980;SDS011;479;53.514;9.994;2022-08-01T15:35:39;4.90;;;2.80;;
980;SDS011;479;53.514;9.994;2022-08-01T15:38:07;5.30;;;3.57;;
980;SDS011;479;53.514;9.994;2022-08-01T15:40:34;4.63;;;2.50;;
980;SDS011;479;53.514;9.994;2022-08-01T15:43:02;4.90;;;2.77;;
980;SDS011;479;53.514;9.994;2022-08-01T15:45:29;5.80;;;2.63;;
980;SDS011;479;53.514;9.994;2022-08-01T15:47:56;6.43;;;2.50;;
980;SDS011;479;53.514;9.994;2022-08-01T15:50:23;4.87;;;2.90;;
980;SDS011;479;53.514;9.994;2022-08-01T15:52:50;4.67;;;2.87;;
980;SDS011;479;53.514;9.994;2022-08-01T15:55:18;4.03;;;2.30;;
980;SDS011;479;53.514;9.994;2022-08-01T15:57:45;6.20;;;2.40;;
980;SDS011;479;53.514;9.994;2022-08-01T16:00:13;7.17;;;3.07;;